Flight Track Log - Related Links

Times and Time Zones

All times are in EDT time to prevent confusion due to time zone crossing. See the CES5660 flight status page for this flight to view local times or setup timezone preferences in your user account.

Time Position Orientation Groundspeed Altitude Reporting Facility
EDT Latitude Longitude Course Direction KTS MPH feet Rate Location/Type
Sat 07:35:11 PM 38.6826 121.3082 228° Southwest 352 405 16,900  Level FlightAware ADS-B (ZSQD / TAO)
Sat 07:35:34 PM 38.6577 121.2738 228° Southwest 362 417 18,100 2,949 Climbing FlightAware ADS-B (ZSQD / TAO)
Sat 07:36:10 PM 38.6154 121.2154 228° Southwest 372 428 19,800 2,776 Climbing FlightAware ADS-B (ZSQD / TAO)
Sat 07:36:41 PM 38.5776 121.1634 228° Southwest 380 437 21,200 1,869 Climbing FlightAware ADS-B (ZSQD / TAO)
Sat 07:37:11 PM 38.5412 121.1135 228° Southwest 394 453 21,700 508 Climbing FlightAware ADS-B (ZSQD / TAO)
Sat 07:37:40 PM 38.5031 121.0613 227° Southwest 411 473 21,700  Level FlightAware ADS-B (ZSQD / TAO)
Sat 07:38:10 PM 38.4630 121.0063 228° Southwest 438 504 21,700  Level FlightAware ADS-B (ZSQD / TAO)
Sat 07:38:40 PM 38.4209 120.9490 227° Southwest 440 506 21,700  Level FlightAware ADS-B (ZSQD / TAO)
Sat 07:39:10 PM 38.3819 120.8960 227° Southwest 441 507 21,700 369 Level FlightAware ADS-B (ZSQD / TAO)
Sat 07:39:45 PM 38.3311 120.8269 227° Southwest 440 506 22,100 1,826 Climbing FlightAware ADS-B (ZSQD / TAO)
Sat 07:40:19 PM 38.2849 120.7642 228° Southwest 420 483 23,800 2,677 Climbing FlightAware ADS-B (ZSQD / TAO)
Sat 07:40:50 PM 38.2407 120.7137 215° Southwest 416 479 25,000 1,925 Climbing FlightAware ADS-B (ZSQD / TAO)
Sat 07:41:12 PM 38.2058 120.6894 227° Southwest 428 493 25,500 1,250 Climbing FlightAware ADS-B
Sat 07:41:14 PM 38.2006 120.6861 207° Southwest 420 483 25,500 1,421 Level FlightAware ADS-B (ZSQD / TAO)
Sat 07:41:50 PM 38.1354 120.6455 207° Southwest 426 490 26,400 1,455 Climbing FlightAware ADS-B (ZSQD / TAO)
Sat 07:42:20 PM 38.0838 120.6134 207° Southwest 431 496 27,100 1,294 Climbing FlightAware ADS-B (ZSQD / TAO)
Sat 07:42:41 PM 38.0441 120.5903 202° Southwest 435 501 27,500 588 Climbing FlightAware ADS-B
Sat 07:43:11 PM 37.9875 120.5709 190° South 432 497 27,600 75 Climbing FlightAware ADS-B (ZSQD / TAO)
Sat 07:44:01 PM 37.8901 120.5618 184° South 430 495 27,600 456 Level FlightAware ADS-B (ZSQD / TAO)
Sat 07:44:30 PM 37.8309 120.5531 194° South 434 499 28,200 1,263 Climbing FlightAware ADS-B (ZSQD / TAO)
Sat 07:44:39 PM 37.8128 120.5456 202° Southwest 436 502 28,400 1,600 Climbing FlightAware ADS-B (ZSQD / TAO)
Sat 07:45:00 PM 37.7740 120.5164 216° Southwest 435 501 29,000 1,529 Climbing FlightAware ADS-B (ZSQD / TAO)
Sat 07:45:30 PM 37.7263 120.4754 212° Southwest 441 507 29,700 1,371 Climbing FlightAware ADS-B (ZSQD / TAO)
Sat 07:45:35 PM 37.7325 120.4802 195° South 435 501 29,800 1,143 Climbing FlightAware ADS-B
Sat 07:45:51 PM 37.6883 120.4497 207° Southwest 446 513 30,100 1,174 Climbing FlightAware ADS-B (ZSQD / TAO)
Sat 07:46:21 PM 37.6311 120.4217 198° South 456 525 30,700 1,600 Climbing FlightAware ADS-B (ZSQD / TAO)
Sat 07:46:51 PM 37.5686 120.4041 189° South 452 520 31,700 1,424 Climbing FlightAware ADS-B (ZSQD / TAO)
Sat 07:47:20 PM 37.5060 120.3946 187° South 454 522 32,100 407 Climbing FlightAware ADS-B (ZSQD / TAO)
Sat 07:47:50 PM 37.4431 120.3853 187° South 454 522 32,100  Level FlightAware ADS-B (ZSQD / TAO)
Sat 07:48:21 PM 37.3814 120.3764 187° South 451 519 32,100  Level FlightAware ADS-B (ZSQD / TAO)
Sat 07:48:50 PM 37.3197 120.3675 187° South 450 518 32,100  Level FlightAware ADS-B (ZSQD / TAO)
Sat 07:49:21 PM 37.2566 120.3583 187° South 448 516 32,100  Level FlightAware ADS-B (ZSQD / TAO)
Sat 07:49:50 PM 37.1950 120.3495 187° South 444 511 32,100  Level FlightAware ADS-B (ZSQD / TAO)
Sat 07:50:21 PM 37.1346 120.3407 187° South 443 510 32,100  Level FlightAware ADS-B (ZSQD / TAO)
Sat 07:50:50 PM 37.0736 120.3319 187° South 441 507 32,100  Level FlightAware ADS-B (ZSQD / TAO)
Sat 07:51:20 PM 37.0118 120.3230 187° South 441 507 32,100  Level FlightAware ADS-B (ZSQD / TAO)
Sat 07:51:51 PM 36.9505 120.3141 187° South 442 509 32,100  Level FlightAware ADS-B (ZSQD / TAO)
Sat 07:52:20 PM 36.8895 120.3053 187° South 442 509 32,100  Level FlightAware ADS-B (ZSQD / TAO)
Sat 07:52:50 PM 36.8292 120.2964 187° South 444 511 32,100  Level FlightAware ADS-B (ZSQD / TAO)
Sat 07:53:20 PM 36.7707 120.2879 187° South 445 512 32,100  Level FlightAware ADS-B (ZSQD / TAO)
Sat 07:53:51 PM 36.7064 120.2785 187° South 446 513 32,100  Level FlightAware ADS-B (ZSQD / TAO)
Sat 07:54:20 PM 36.6448 120.2696 187° South 448 516 32,100  Level FlightAware ADS-B (ZSQD / TAO)
Sat 07:54:51 PM 36.5847 120.2608 187° South 448 516 32,100  Level FlightAware ADS-B (ZSQD / TAO)
Sat 07:55:20 PM 36.5218 120.2538 183° South 449 517 32,100  Level FlightAware ADS-B (ZSQD / TAO)
Sat 07:55:50 PM 36.4583 120.2517 182° South 449 517 32,100  Level FlightAware ADS-B (ZSQD / TAO)
Sat 07:56:11 PM 36.4215 120.2550 171° South 448 516 32,100  Level FlightAware ADS-B (ZSQD / TAO)
Sat 07:56:30 PM 36.3791 120.2689 159° South 447 514 32,100  Level FlightAware ADS-B (ZSQD / TAO)
Sat 07:57:10 PM 36.3033 120.3120 154° Southeast 446 513 32,100  Level FlightAware ADS-B (ZSQD / TAO)
Sat 07:57:40 PM 36.2521 120.3416 154° Southeast 444 511 32,100  Level FlightAware ADS-B (ZSQD / TAO)
Sat 07:58:10 PM 36.1913 120.3767 154° Southeast 444 511 32,100  Level FlightAware ADS-B (ZSQD / TAO)
Sat 07:58:40 PM 36.1347 120.4096 154° Southeast 445 512 32,100  Level FlightAware ADS-B (ZSQD / TAO)
Sat 07:59:10 PM 36.0792 120.4415 154° Southeast 444 511 32,100  Level FlightAware ADS-B (ZSQD / TAO)
Sat 07:59:39 PM 36.0253 120.4727 154° Southeast 443 510 32,100  Level FlightAware ADS-B (ZSQD / TAO)
Sat 08:00:11 PM 35.9667 120.5066 154° Southeast 442 509 32,100  Level FlightAware ADS-B (ZSQD / TAO)
Sat 08:00:40 PM 35.9118 120.5381 154° Southeast 441 507 32,100  Level FlightAware ADS-B (ZSQD / TAO)
Sat 08:01:11 PM 35.8563 120.5700 154° Southeast 440 506 32,100  Level FlightAware ADS-B (ZSQD / TAO)
Sat 08:01:40 PM 35.8021 120.6012 154° Southeast 439 505 32,100  Level FlightAware ADS-B (ZSQD / TAO)
Sat 08:02:11 PM 35.7458 120.6335 154° Southeast 439 505 32,100  Level FlightAware ADS-B (ZSQD / TAO)
Sat 08:02:41 PM 35.6894 120.6657 155° Southeast 438 504 32,100  Level FlightAware ADS-B (ZSQD / TAO)
Sat 08:03:10 PM 35.6368 120.6957 155° Southeast 438 504 32,100  Level FlightAware ADS-B (ZSQD / TAO)
Sat 08:03:40 PM 35.5801 120.7281 155° Southeast 438 504 32,100  Level FlightAware ADS-B (ZSQD / TAO)
Sat 08:04:11 PM 35.5241 120.7600 155° Southeast 438 504 32,100  Level FlightAware ADS-B (ZSQD / TAO)
Sat 08:04:41 PM 35.4681 120.7907 157° South 439 505 32,100  Level FlightAware ADS-B (ZSQD / TAO)
Sat 08:05:10 PM 35.4130 120.8180 157° South 439 505 32,100  Level FlightAware ADS-B (ZSQD / TAO)
Sat 08:05:41 PM 35.3561 120.8462 157° South 439 505 32,100  Level FlightAware ADS-B (ZSQD / TAO)
Sat 08:06:10 PM 35.2995 120.8742 157° South 439 505 32,100  Level FlightAware ADS-B (ZSQD / TAO)
Sat 08:06:40 PM 35.2418 120.9027 157° South 440 506 32,100  Level FlightAware ADS-B (ZSQD / TAO)
Sat 08:07:10 PM 35.1871 120.9297 157° South 440 506 32,100  Level FlightAware ADS-B (ZSQD / TAO)
Sat 08:07:41 PM 35.1300 120.9577 157° South 440 506 32,100  Level FlightAware ADS-B (ZSQD / TAO)
Sat 08:08:04 PM 35.0937 120.9755 157° South 440 506 32,100 -365 Level FlightAware ADS-B (ZSQD / TAO)
Sat 08:38:53 PM 31.5553 122.6611 184° South 430 495 20,700 -371 Descending FlightAware ADS-B (ZSSL)
Sat 08:39:03 PM 31.5362 122.6561 197° South 415 478 20,600 -2,143 Descending FlightAware ADS-B (ZSSL)
Sat 08:39:21 PM 31.5043 122.6369 214° Southwest 409 471 19,700 -3,673 Descending FlightAware ADS-B (ZSSL)
Sat 08:39:52 PM 31.4594 122.5878 225° Southwest 427 491 17,600 -2,005 Descending FlightAware ADS-B (ZSSL)
Sat 08:45:47 PM 31.2251 122.0148 267° West 282 325 6,800 -1,813 Descending FlightAware ADS-B (ZSSL)
Sat 08:45:56 PM 31.2261 122.0021 279° West 281 323 6,600 -1,472 Descending FlightAware ADS-B (ZSSL)
Sat 08:46:40 PM 31.2616 121.9487 315° West 272 313 5,500 -971 Descending FlightAware ADS-B (ZSSL)
Sat 08:47:41 PM 31.3130 121.8901 314° West 257 296 4,900 -583 Descending FlightAware ADS-B (ZSSL)
Sat 08:47:52 PM 31.3244 121.8855 344° North 224 258 4,800 -462 Descending FlightAware ADS-B (ZSSL)
Sat 08:48:07 PM 31.3387 121.8807 344° North 224 258 4,700 -600 Descending FlightAware ADS-B (ZSSL)
Sat 08:48:22 PM 31.3525 121.8761 344° North 208 239 4,500 -800 Descending FlightAware ADS-B (ZSSL)
Sat 08:48:37 PM 31.3665 121.8714 344° North 203 234 4,300 -774 Descending FlightAware ADS-B (ZSSL)
Sat 08:48:53 PM 31.3794 121.8669 344° North 203 234 4,100 -900 Descending FlightAware ADS-B (ZSSL)
Sat 08:49:17 PM 31.3981 121.8514 318° Northwest 204 235 3,700 -750 Descending FlightAware ADS-B (ZSSL)
Sat 08:49:25 PM 31.3986 121.8502 279° West 205 236 3,700 -771 Level FlightAware ADS-B (ZSSL)
Sat 08:50:27 PM 31.3877 121.7762 256° West 204 235 2,800 -833 Descending FlightAware ADS-B (ZSSL)
Sat 08:50:37 PM 31.3850 121.7681 245° Southwest 202 232 2,700 -706 Descending FlightAware ADS-B (ZSSL)
Sat 08:50:44 PM 31.3798 121.7610 221° Southwest 196 226 2,600 -600 Descending FlightAware ADS-B (ZSSL)
Sat 08:51:07 PM 31.3614 121.7521 197° South 189 217 2,400 -474 Descending FlightAware ADS-B (ZSSL)
Sat 08:51:22 PM 31.3476 121.7475 196° South 189 217 2,300 -480 Descending FlightAware ADS-B (ZSSL)
Sat 08:51:32 PM 31.3392 121.7460 182° South 189 217 2,200 -800 Descending FlightAware ADS-B (ZSSL)
Sat 08:51:37 PM 31.3352 121.7465 173° South 188 216 2,100 -600 Descending FlightAware ADS-B (ZSSL)
Sat 08:51:42 PM 31.3306 121.7476 166° South 187 215 2,100  Level FlightAware ADS-B (ZSSL)
Sat 08:51:58 PM 31.3178 121.7520 163° South 186 214 2,100  Level FlightAware ADS-B (ZSSL)
Sat 08:52:17 PM 31.3012 121.7579 162° South 187 215 2,100  Level FlightAware ADS-B (ZSSL)
Sat 08:52:37 PM 31.2855 121.7638 162° South 188 216 2,100  Level FlightAware ADS-B (ZSSL)
Sat 08:52:56 PM 31.2759 121.7675 161° South 160 184 2,100 -261 Level FlightAware ADS-B (ZSSL)
Sat 08:53:23 PM 31.2540 121.7758 161° South 141 162 1,900 -585 Descending FlightAware ADS-B (ZSSL)
Sat 08:53:37 PM 31.2451 121.7792 161° South 131 151 1,700 -615 Descending FlightAware ADS-B (ZSSL)
Sat 08:54:02 PM 31.2310 121.7845 161° South 124 143 1,500 -560 Descending FlightAware ADS-B (ZSSL)
Sat 08:54:52 PM 31.2035 121.7949 162° South 124 143 1,000 -628 Descending FlightAware ADS-B (ZSSL)
Sat 08:55:28 PM 31.1842 121.8022 163° South 124 143 600 -656 Descending FlightAware ADS-B (ZSSL)
Sat 08:55:56 PM 31.1684 121.8082 161° South 124 143 300 -643 Descending FlightAware ADS-B (ZSSL)
Sat 08:58:00 PM 31.1428 121.7924 208° Southwest  Level Estimated
Sat 08:59:00 PM 31.1428 121.7924 North  Level Estimated
Sat 09:00:00 PM 31.1428 121.7924 North  Level Estimated
Sat 09:01:00 PM 31.1428 121.7924 North  Level Estimated
Sat 09:02:00 PM 31.1428 121.7924 North  Level Estimated
Sat 09:03:00 PM 31.1428 121.7924 North  Level Estimated

Login

Don't have an account? Register now (free) for customized features, flight alerts, and more!